Time;durP1;ratioP1;P1;durP2;ratioP2;P2;SDS_P1;SDS_P2;PMS_P1;PMS_P2;Temp;Humidity;BMP_temperature;BMP_pressure;BME280_temperature;BME280_humidity;BME280_pressure;Samples;Min_cycle;Max_cycle;Signal;HPM_P1;HPM_P2
2022/08/30 00:02:47;;;;;;;8.45;6.43;;;;;;;19.25;64.30;101885.91;5114473;28;20046;-56
2022/08/30 00:05:15;;;;;;;13.20;6.63;;;;;;;19.07;64.83;101888.28;5115260;28;20027;-56
2022/08/30 00:07:41;;;;;;;13.30;6.00;;;;;;;19.15;64.86;101883.13;5114275;28;20027;-56
2022/08/30 00:10:09;;;;;;;9.82;5.82;;;;;;;19.08;65.06;101881.03;5096716;28;20035;-56
2022/08/30 00:12:38;;;;;;;11.90;6.33;;;;;;;19.18;64.86;101887.41;5113624;28;20529;-57
2022/08/30 00:15:05;;;;;;;9.93;6.38;;;;;;;19.10;65.19;101881.78;5113387;28;20032;-56
2022/08/30 00:17:33;;;;;;;10.18;6.15;;;;;;;19.04;65.44;101880.44;5113939;28;20470;-55
2022/08/30 00:19:59;;;;;;;10.57;6.10;;;;;;;19.07;65.43;101882.88;5114759;28;20031;-56
2022/08/30 00:22:24;;;;;;;15.57;6.80;;;;;;;19.05;65.13;101885.69;5113679;28;20030;-56
2022/08/30 00:24:50;;;;;;;11.43;5.78;;;;;;;19.06;65.24;101889.28;5113778;28;20035;-56
2022/08/30 00:27:15;;;;;;;10.63;6.20;;;;;;;18.99;65.72;101890.75;5114805;28;20129;-56
2022/08/30 00:29:41;;;;;;;12.48;6.65;;;;;;;18.85;66.13;101889.16;5114436;28;20531;-56
2022/08/30 00:32:06;;;;;;;11.75;6.03;;;;;;;18.81;66.51;101887.72;5114652;28;20478;-56
2022/08/30 00:34:33;;;;;;;12.90;6.40;;;;;;;18.77;66.87;101883.56;5096473;28;20023;-56
2022/08/30 00:36:59;;;;;;;11.80;6.15;;;;;;;18.86;66.73;101890.91;5114947;28;20028;-56
2022/08/30 00:39:24;;;;;;;9.82;5.53;;;;;;;18.79;67.02;101887.81;5113002;28;20030;-56
2022/08/30 00:41:50;;;;;;;7.70;5.55;;;;;;;18.91;66.67;101885.13;5096244;28;20390;-56
2022/08/30 00:44:18;;;;;;;13.35;5.88;;;;;;;18.94;66.47;101885.75;5114098;28;20019;-56
2022/08/30 00:46:43;;;;;;;10.57;5.45;;;;;;;18.99;66.56;101883.50;5113647;28;20537;-56
2022/08/30 00:49:11;;;;;;;13.65;5.75;;;;;;;19.03;66.45;101890.38;5095829;28;20133;-56
2022/08/30 00:55:00;;;;;;;9.68;5.93;;;;;;;19.03;66.72;101885.00;5113406;28;20046;-56
2022/08/30 00:57:29;;;;;;;11.30;5.53;;;;;;;19.04;66.67;101891.22;5113623;28;20496;-56
2022/08/30 00:59:54;;;;;;;10.88;5.20;;;;;;;19.00;66.63;101893.34;5112910;28;20044;-55
2022/08/30 01:02:22;;;;;;;7.43;5.13;;;;;;;18.97;67.00;101884.63;5114718;28;20077;-56
2022/08/30 01:04:50;;;;;;;10.55;5.65;;;;;;;18.92;67.32;101897.63;5114659;28;20027;-56
2022/08/30 01:07:16;;;;;;;11.30;5.85;;;;;;;18.97;67.16;101892.69;5113475;28;20034;-56
2022/08/30 01:09:41;;;;;;;10.50;5.57;;;;;;;18.97;67.25;101888.19;5112933;28;20020;-56
2022/08/30 01:12:08;;;;;;;9.07;5.22;;;;;;;18.91;67.57;101901.28;5114409;28;20027;-56
2022/08/30 01:14:33;;;;;;;10.73;5.60;;;;;;;18.86;67.61;101896.28;5113923;28;20020;-56
2022/08/30 01:17:00;;;;;;;7.65;5.25;;;;;;;18.83;67.77;101899.25;5113306;28;20083;-56
2022/08/30 01:19:41;;;;;;;8.60;5.15;;;;;;;18.99;67.37;101906.94;5113259;28;20028;-56
2022/08/30 01:22:43;;;;;;;7.05;5.40;;;;;;;18.97;67.06;101898.97;5114529;28;20076;-56
2022/08/30 01:25:11;;;;;;;10.45;5.65;;;;;;;18.99;67.41;101901.53;5112683;28;20053;-56
2022/08/30 01:27:46;;;;;;;9.90;5.28;;;;;;;18.94;67.34;101898.34;5112384;28;20386;-56
2022/08/30 01:30:12;;;;;;;8.35;5.85;;;;;;;18.72;68.07;101886.59;5112453;28;20035;-56
2022/08/30 01:32:42;;;;;;;8.10;5.18;;;;;;;18.72;68.36;101896.53;5113958;28;20084;-56
2022/08/30 01:35:10;;;;;;;10.23;5.65;;;;;;;18.60;68.77;101899.22;5112686;28;20100;-56
2022/08/30 01:37:36;;;;;;;7.70;5.25;;;;;;;18.66;68.55;101887.09;5114099;28;20038;-56
2022/08/30 01:40:03;;;;;;;10.02;5.55;;;;;;;18.67;68.48;101898.72;5113847;28;20027;-56
2022/08/30 01:42:28;;;;;;;7.32;5.82;;;;;;;18.72;68.49;101901.91;5113964;28;20050;-56
2022/08/30 01:44:54;;;;;;;12.18;5.90;;;;;;;18.73;68.17;101896.41;5113376;28;20104;-56
2022/08/30 01:47:20;;;;;;;11.45;6.03;;;;;;;18.61;68.64;101900.91;5112509;28;20031;-56
2022/08/30 01:49:46;;;;;;;7.15;5.22;;;;;;;18.60;68.89;101901.06;5113716;28;20084;-56
2022/08/30 01:52:13;;;;;;;8.23;5.28;;;;;;;18.70;68.46;101901.16;5113535;28;20475;-56
2022/08/30 01:54:44;;;;;;;9.88;5.57;;;;;;;18.54;68.93;101902.41;5111857;28;20042;-56
2022/08/30 01:57:14;;;;;;;8.32;5.50;;;;;;;18.63;68.70;101899.97;5113690;28;20035;-56
2022/08/30 01:59:42;;;;;;;9.48;5.20;;;;;;;18.51;69.04;101901.81;5145858;27;20047;-57
2022/08/30 02:02:10;;;;;;;9.00;5.30;;;;;;;18.45;69.42;101896.91;5113486;28;20023;-56
2022/08/30 02:04:35;;;;;;;9.18;5.50;;;;;;;18.48;69.32;101894.81;5112096;28;20031;-56
2022/08/30 02:07:02;;;;;;;9.15;5.65;;;;;;;18.41;69.48;101900.81;5112118;28;20474;-56
2022/08/30 02:09:28;;;;;;;10.30;6.05;;;;;;;18.40;69.42;101897.25;5113449;28;20090;-56
2022/08/30 02:11:54;;;;;;;10.82;5.80;;;;;;;18.31;69.86;101885.38;5111959;28;20027;-56
2022/08/30 02:14:19;;;;;;;10.05;6.07;;;;;;;18.25;69.99;101887.72;5111542;28;20065;-56
2022/08/30 02:16:45;;;;;;;9.43;6.07;;;;;;;18.35;69.80;101889.56;5111932;28;20382;-56
2022/08/30 02:19:11;;;;;;;8.25;5.75;;;;;;;18.30;70.00;101888.22;5113235;28;20023;-56
2022/08/30 02:21:36;;;;;;;9.90;6.13;;;;;;;18.30;69.97;101885.50;5112985;28;20027;-56
2022/08/30 02:24:02;;;;;;;9.38;5.78;;;;;;;18.35;69.82;101892.25;5113079;28;20133;-56
2022/08/30 02:26:29;;;;;;;7.47;5.88;;;;;;;18.26;70.03;101884.88;5113284;28;20032;-56
2022/08/30 02:28:55;;;;;;;10.75;6.38;;;;;;;18.25;70.21;101882.31;5112471;28;20023;-56
2022/08/30 02:31:21;;;;;;;8.82;6.28;;;;;;;18.17;70.42;101883.75;5094888;28;20028;-56
2022/08/30 02:33:49;;;;;;;8.43;6.22;;;;;;;18.08;70.76;101889.03;5111371;28;20407;-56
2022/08/30 02:36:14;;;;;;;9.57;5.93;;;;;;;18.07;70.92;101884.63;5112758;28;20477;-56
2022/08/30 02:38:40;;;;;;;8.13;6.00;;;;;;;18.11;70.62;101880.69;5112768;28;20100;-56
2022/08/30 02:41:06;;;;;;;8.00;5.80;;;;;;;18.13;70.53;101876.06;5112976;28;20107;-56
2022/08/30 02:43:31;;;;;;;8.10;6.00;;;;;;;18.06;70.97;101886.47;5112210;28;20107;-56
2022/08/30 02:45:57;;;;;;;10.15;6.43;;;;;;;18.05;70.96;101889.25;5112891;28;20038;-56
2022/08/30 02:48:22;;;;;;;11.02;6.13;;;;;;;18.09;70.57;101869.22;5111332;28;20023;-56
2022/08/30 02:50:50;;;;;;;8.60;5.68;;;;;;;18.11;70.66;101876.16;5112521;28;20031;-56
2022/08/30 02:53:16;;;;;;;7.32;5.90;;;;;;;18.01;71.10;101875.19;5112629;28;20385;-56
2022/08/30 02:55:42;;;;;;;11.90;6.70;;;;;;;17.96;71.26;101873.84;5112462;28;20036;-56
2022/08/30 02:58:10;;;;;;;10.10;6.70;;;;;;;17.87;71.56;101876.25;5111808;28;20023;-56
2022/08/30 03:00:36;;;;;;;10.13;6.75;;;;;;;17.76;71.89;101865.44;5112929;28;20477;-56
2022/08/30 03:03:04;;;;;;;12.48;6.65;;;;;;;17.81;71.71;101867.81;5111831;28;20107;-56
2022/08/30 03:05:31;;;;;;;9.68;6.50;;;;;;;17.79;71.96;101870.59;5112362;28;20397;-55
2022/08/30 03:07:57;;;;;;;10.43;6.70;;;;;;;17.82;71.80;101872.19;5112391;28;20377;-56
2022/08/30 03:10:22;;;;;;;8.85;6.68;;;;;;;17.84;71.81;101872.94;5112532;28;20025;-56
2022/08/30 03:12:47;;;;;;;10.20;6.78;;;;;;;17.77;71.79;101856.41;5112096;28;20047;-56
2022/08/30 03:15:16;;;;;;;9.50;7.00;;;;;;;17.78;71.91;101868.91;5110741;28;20076;-56
2022/08/30 03:17:42;;;;;;;10.23;6.70;;;;;;;17.79;71.78;101865.22;5112299;28;20043;-56
2022/08/30 03:20:08;;;;;;;10.65;6.93;;;;;;;17.76;71.84;101861.88;5112056;28;20108;-56
2022/08/30 03:22:34;;;;;;;8.98;6.88;;;;;;;17.76;71.89;101862.75;5112306;28;20023;-56
2022/08/30 03:25:00;;;;;;;7.10;6.00;;;;;;;17.88;71.66;101875.31;5110750;28;20045;-56
2022/08/30 03:27:27;;;;;;;8.20;6.45;;;;;;;17.91;71.19;101864.28;5112378;28;20106;-56
2022/08/30 03:29:53;;;;;;;12.93;6.35;;;;;;;17.89;71.76;101876.16;5111709;28;20054;-56
2022/08/30 03:32:19;;;;;;;8.85;6.90;;;;;;;17.85;71.56;101866.59;5112292;28;20413;-56
2022/08/30 03:34:44;;;;;;;8.88;6.82;;;;;;;17.87;71.40;101860.09;5110547;28;20103;-56
2022/08/30 03:37:10;;;;;;;10.32;6.57;;;;;;;17.71;71.68;101851.50;5112175;28;20020;-56
2022/08/30 03:39:35;;;;;;;7.47;6.60;;;;;;;17.81;71.60;101868.66;5110888;28;20538;-56
2022/08/30 03:42:01;;;;;;;8.73;6.95;;;;;;;17.81;71.55;101865.13;5112094;28;20027;-56
2022/08/30 03:44:26;;;;;;;11.00;6.90;;;;;;;17.80;71.43;101866.09;5111839;28;20023;-56
2022/08/30 03:46:52;;;;;;;11.40;6.82;;;;;;;17.78;71.52;101859.97;5112042;28;20020;-56
2022/08/30 03:49:19;;;;;;;9.15;6.90;;;;;;;17.88;71.19;101869.03;5111815;28;20424;-56
2022/08/30 03:51:45;;;;;;;8.95;6.82;;;;;;;17.78;71.89;101868.03;5110838;28;20066;-56
2022/08/30 03:54:10;;;;;;;9.57;7.30;;;;;;;17.77;71.53;101866.31;5110612;28;20027;-56
2022/08/30 03:56:38;;;;;;;8.55;6.97;;;;;;;17.59;72.40;101861.38;5112382;28;20028;-56
2022/08/30 03:59:04;;;;;;;9.20;7.75;;;;;;;17.55;72.16;101862.56;5111369;28;20095;-56
2022/08/30 04:01:29;;;;;;;8.68;6.95;;;;;;;17.55;72.12;101864.41;5110782;28;20118;-56
2022/08/30 04:03:55;;;;;;;8.98;6.65;;;;;;;17.58;72.47;101869.53;5111839;28;20028;-56
2022/08/30 04:06:23;;;;;;;8.18;6.68;;;;;;;17.57;72.43;101865.16;5112009;28;20072;-56
2022/08/30 04:08:49;;;;;;;7.88;7.07;;;;;;;17.59;72.19;101869.44;5111864;28;20413;-56
2022/08/30 04:11:15;;;;;;;8.98;7.25;;;;;;;17.59;72.34;101865.84;5112009;28;20026;-56
2022/08/30 04:13:41;;;;;;;11.93;7.78;;;;;;;17.52;72.52;101870.84;5111331;28;20173;-56
2022/08/30 04:16:07;;;;;;;8.68;7.68;;;;;;;17.56;72.29;101860.72;5114073;28;20073;-56
2022/08/30 04:18:34;;;;;;;10.82;7.80;;;;;;;17.59;72.29;101864.06;5114132;28;20127;-56
2022/08/30 04:21:00;;;;;;;12.38;8.07;;;;;;;17.43;72.69;101864.34;5114391;28;20039;-56
2022/08/30 04:23:27;;;;;;;9.68;8.35;;;;;;;17.51;72.55;101876.38;5114450;28;20035;-56
2022/08/30 04:25:53;;;;;;;10.90;8.00;;;;;;;17.52;72.52;101873.56;5115501;28;20215;-56
2022/08/30 04:28:22;;;;;;;10.13;8.88;;;;;;;17.49;72.65;101873.78;5113691;28;20742;-56
2022/08/30 04:30:47;;;;;;;15.10;7.95;;;;;;;17.47;72.55;101871.22;5115573;28;20466;-55
2022/08/30 04:33:16;;;;;;;9.50;8.15;;;;;;;17.46;72.82;101884.78;5113904;28;20026;-56
2022/08/30 04:35:47;;;;;;;12.68;8.88;;;;;;;17.52;72.54;101880.78;5115476;28;20023;-56
2022/08/30 04:38:16;;;;;;;10.05;8.00;;;;;;;17.48;72.69;101878.31;5115265;28;20042;-56
2022/08/30 04:40:42;;;;;;;11.00;8.57;;;;;;;17.53;72.46;101886.03;5115486;28;20031;-56
2022/08/30 04:43:08;;;;;;;10.40;8.68;;;;;;;17.38;73.02;101892.56;5114659;28;20051;-55
2022/08/30 04:45:33;;;;;;;10.20;8.35;;;;;;;17.40;73.09;101880.72;5115317;28;20465;-56
2022/08/30 04:47:59;;;;;;;9.60;8.43;;;;;;;17.38;73.17;101892.56;5114903;28;20032;-55
2022/08/30 04:50:25;;;;;;;10.63;8.63;;;;;;;17.40;72.98;101896.00;5114327;28;20386;-56
2022/08/30 04:52:50;;;;;;;9.40;8.48;;;;;;;17.29;73.28;101888.72;5113478;28;20043;-56
2022/08/30 04:55:18;;;;;;;12.02;9.45;;;;;;;17.27;73.63;101895.22;5114919;28;20078;-56
2022/08/30 04:57:46;;;;;;;10.52;8.45;;;;;;;17.35;73.03;101890.94;5114827;28;20092;-56
2022/08/30 05:00:12;;;;;;;10.75;9.65;;;;;;;17.34;73.15;101896.47;5114233;28;20047;-56
2022/08/30 05:02:39;;;;;;;9.88;8.98;;;;;;;17.24;73.24;101888.25;5114458;28;20023;-56
2022/08/30 05:07:51;;;;;;;10.23;9.18;;;;;;;17.15;73.38;101879.03;5114550;28;20082;-56
2022/08/30 05:10:17;;;;;;;10.48;9.35;;;;;;;17.17;73.78;101893.19;5114712;28;20490;-56
2022/08/30 05:12:42;;;;;;;10.70;8.95;;;;;;;17.21;73.79;101901.91;5113282;28;20060;-56
2022/08/30 05:15:09;;;;;;;14.60;9.38;;;;;;;17.20;73.79;101903.72;5114033;28;20020;-56
2022/08/30 05:17:36;;;;;;;12.60;9.88;;;;;;;17.19;73.90;101898.47;5114360;28;20371;-56
2022/08/30 05:20:03;;;;;;;11.05;9.95;;;;;;;17.16;73.88;101910.31;5112905;28;20019;-56
2022/08/30 05:22:30;;;;;;;14.45;9.98;;;;;;;17.24;73.83;101901.69;5113417;28;20031;-56
2022/08/30 05:24:56;;;;;;;13.02;10.27;;;;;;;17.25;73.76;101906.94;5114414;28;20094;-56
2022/08/30 05:27:21;;;;;;;13.90;11.07;;;;;;;17.12;74.18;101916.00;5113751;28;20107;-56
2022/08/30 05:29:47;;;;;;;13.07;10.02;;;;;;;17.18;74.08;101919.13;5113777;28;20019;-56
2022/08/30 05:32:12;;;;;;;13.38;10.18;;;;;;;17.12;74.43;101922.25;5112722;28;20034;-56
2022/08/30 05:34:37;;;;;;;12.02;10.68;;;;;;;17.14;74.30;101916.75;5112690;28;20031;-56
2022/08/30 05:37:03;;;;;;;12.15;10.85;;;;;;;17.13;74.39;101915.91;5112841;28;20148;-56
2022/08/30 05:39:28;;;;;;;13.82;10.95;;;;;;;17.20;74.21;101919.00;5114209;28;20016;-56
2022/08/30 05:41:58;;;;;;;13.73;11.13;;;;;;;17.17;74.30;101925.44;5113943;28;20032;-56
2022/08/30 05:44:24;;;;;;;14.20;11.02;;;;;;;17.17;74.04;101912.00;5113570;28;20031;-56
2022/08/30 05:46:52;;;;;;;14.57;11.40;;;;;;;17.15;74.21;101908.59;5112281;28;20377;-56
2022/08/30 05:49:18;;;;;;;13.07;11.27;;;;;;;17.11;74.41;101914.31;5113678;28;20081;-56
2022/08/30 05:51:46;;;;;;;13.48;11.52;;;;;;;17.24;74.18;101917.81;5113845;28;20015;-56
2022/08/30 05:54:13;;;;;;;15.95;12.02;;;;;;;17.21;74.20;101918.03;5113616;28;20081;-56
2022/08/30 05:56:39;;;;;;;14.05;10.75;;;;;;;17.18;74.27;101918.28;5112448;28;20034;-56
2022/08/30 05:59:10;;;;;;;14.73;12.10;;;;;;;17.22;73.94;101915.22;5112806;28;20487;-56
2022/08/30 06:01:38;;;;;;;13.18;11.52;;;;;;;17.16;74.36;101915.69;5112495;28;20122;-56
2022/08/30 06:04:06;;;;;;;14.68;12.77;;;;;;;17.12;74.48;101924.06;5113332;28;20470;-56
2022/08/30 06:06:34;;;;;;;17.00;13.13;;;;;;;17.08;75.02;101923.44;5113559;28;20416;-56
2022/08/30 06:09:00;;;;;;;17.15;12.30;;;;;;;17.14;74.43;101914.94;5112156;28;20054;-56
2022/08/30 06:11:25;;;;;;;14.80;13.27;;;;;;;17.11;74.44;101923.22;5113701;28;20489;-56
2022/08/30 06:13:52;;;;;;;14.18;12.63;;;;;;;17.14;74.82;101928.38;5112732;28;20070;-56
2022/08/30 06:16:19;;;;;;;18.13;12.88;;;;;;;17.17;74.44;101919.22;5113385;28;20015;-56
2022/08/30 06:18:46;;;;;;;17.05;12.60;;;;;;;17.06;74.68;101897.63;5111837;28;20062;-56
2022/08/30 06:21:21;;;;;;;15.77;13.55;;;;;;;17.25;74.15;101919.53;5113236;28;20225;-56
2022/08/30 06:23:47;;;;;;;17.95;13.93;;;;;;;17.31;74.06;101923.59;5113079;27;20038;-56
2022/08/30 06:26:13;;;;;;;17.23;13.68;;;;;;;17.37;73.95;101923.97;5113165;28;20401;-56
2022/08/30 06:28:39;;;;;;;15.70;13.05;;;;;;;17.40;74.07;101917.50;5110916;28;20024;-56
2022/08/30 06:31:05;;;;;;;14.88;13.35;;;;;;;17.51;73.36;101916.72;5111692;28;20120;-56
2022/08/30 06:33:31;;;;;;;15.20;13.23;;;;;;;17.51;73.44;101924.78;5111611;28;20027;-56
2022/08/30 06:36:14;;;;;;;14.32;12.80;;;;;;;17.52;73.65;101919.28;5113122;28;20020;-56
2022/08/30 06:38:40;;;;;;;20.42;13.35;;;;;;;17.56;73.03;101926.16;5110652;28;20066;-56
2022/08/30 06:41:08;;;;;;;18.17;12.32;;;;;;;17.56;72.75;101917.22;5111369;28;20569;-56
2022/08/30 06:43:33;;;;;;;16.13;12.27;;;;;;;17.62;73.03;101920.31;5110816;28;20027;-56
2022/08/30 06:46:08;;;;;;;16.52;13.45;;;;;;;17.75;72.33;101919.38;5111699;28;20037;-56
2022/08/30 06:48:34;;;;;;;15.43;12.63;;;;;;;17.81;72.06;101919.78;5111402;28;20482;-56
2022/08/30 06:50:59;;;;;;;14.02;12.70;;;;;;;17.77;72.44;101910.22;5111478;28;20058;-56
2022/08/30 06:53:25;;;;;;;14.27;12.82;;;;;;;17.78;72.29;101917.34;5112361;28;20386;-57
2022/08/30 06:55:59;;;;;;;15.07;11.25;;;;;;;17.95;71.76;101920.59;5112351;28;20389;-56
2022/08/30 06:58:28;;;;;;;14.60;12.07;;;;;;;18.06;71.29;101915.19;5110922;28;20043;-57
2022/08/30 07:00:53;;;;;;;14.27;12.77;;;;;;;18.23;70.79;101913.88;5112601;28;20391;-56
2022/08/30 07:03:19;;;;;;;15.07;11.40;;;;;;;18.37;70.42;101917.22;5112450;28;20038;-57
2022/08/30 07:05:47;;;;;;;13.00;11.68;;;;;;;18.51;69.70;101924.22;5111338;28;20030;-56
2022/08/30 07:08:12;;;;;;;13.18;11.70;;;;;;;18.59;69.21;101913.69;5112170;28;20031;-57
2022/08/30 07:10:39;;;;;;;14.23;11.93;;;;;;;18.73;69.02;101923.38;5112514;28;20024;-56
2022/08/30 07:13:05;;;;;;;13.65;10.32;;;;;;;18.81;67.93;101920.06;5110315;28;20390;-57
2022/08/30 07:15:31;;;;;;;11.05;10.00;;;;;;;18.82;67.58;101919.97;5112498;28;20073;-57
2022/08/30 07:20:40;;;;;;;12.48;10.13;;;;;;;19.03;67.06;101927.25;5112465;28;20034;-57
2022/08/30 07:23:05;;;;;;;13.20;9.55;;;;;;;19.17;67.11;101936.91;5110834;28;20023;-57
2022/08/30 07:25:31;;;;;;;10.65;9.65;;;;;;;19.22;66.88;101943.66;5111200;28;20054;-56
2022/08/30 07:27:57;;;;;;;11.95;8.85;;;;;;;19.32;65.84;101942.88;5111557;28;20065;-56
2022/08/30 07:30:22;;;;;;;10.73;9.02;;;;;;;19.29;65.63;101944.88;5111019;28;20061;-56
2022/08/30 07:32:48;;;;;;;15.27;9.73;;;;;;;19.20;65.99;101937.50;5112197;28;20527;-57
2022/08/30 07:35:14;;;;;;;12.20;9.85;;;;;;;19.18;65.90;101936.81;5112225;28;20034;-56
2022/08/30 07:37:40;;;;;;;10.63;9.63;;;;;;;19.13;66.67;101943.56;5110852;28;20030;-57
2022/08/30 07:40:06;;;;;;;12.80;9.82;;;;;;;19.12;66.35;101940.00;5110699;28;20030;-57
2022/08/30 07:42:31;;;;;;;12.65;10.13;;;;;;;19.13;65.75;101933.63;5112060;28;20023;-56
2022/08/30 07:44:56;;;;;;;12.90;10.02;;;;;;;19.25;65.93;101939.84;5111887;28;20020;-56
2022/08/30 07:47:22;;;;;;;13.10;10.05;;;;;;;19.39;66.33;101936.00;5112094;28;20446;-57
2022/08/30 07:49:47;;;;;;;12.25;9.30;;;;;;;19.51;65.43;101924.19;5112226;28;20031;-57
2022/08/30 07:52:12;;;;;;;11.48;10.27;;;;;;;19.67;64.93;101937.28;5116322;28;20051;-57
2022/08/30 07:54:38;;;;;;;11.98;9.75;;;;;;;19.73;64.22;101945.69;5116126;27;20420;-57
2022/08/30 07:57:03;;;;;;;13.27;9.23;;;;;;;19.69;64.54;101943.41;5114446;28;20038;-56
2022/08/30 07:59:29;;;;;;;10.85;9.75;;;;;;;19.67;64.74;101942.69;5114362;28;20436;-57
2022/08/30 08:01:54;;;;;;;12.23;9.50;;;;;;;19.69;64.51;101932.63;5114849;28;20076;-57
2022/08/30 08:04:20;;;;;;;9.38;8.45;;;;;;;19.88;64.93;101948.97;5115869;28;20023;-56
2022/08/30 08:06:45;;;;;;;10.23;9.18;;;;;;;19.98;63.53;101946.34;5114647;28;20039;-57
2022/08/30 08:09:13;;;;;;;11.95;9.05;;;;;;;20.14;63.43;101954.81;5114394;28;20027;-56
2022/08/30 08:11:40;;;;;;;10.77;8.80;;;;;;;20.20;62.61;101950.75;5115731;28;20069;-56
2022/08/30 08:14:06;;;;;;;10.88;8.75;;;;;;;20.21;62.24;101941.66;5115332;28;20028;-56
2022/08/30 08:16:33;;;;;;;11.98;8.05;;;;;;;20.39;62.80;101945.47;5116034;28;20138;-57
2022/08/30 08:18:58;;;;;;;11.13;7.85;;;;;;;20.52;61.96;101945.28;5115663;28;20008;-57
2022/08/30 08:21:25;;;;;;;11.20;9.23;;;;;;;20.47;61.97;101950.22;5114278;28;20160;-57
2022/08/30 08:23:51;;;;;;;13.13;9.10;;;;;;;20.38;62.11;101946.47;5115525;28;20020;-56
2022/08/30 08:26:17;;;;;;;9.27;8.35;;;;;;;20.40;61.92;101957.13;5115380;28;20028;-56
2022/08/30 08:28:43;;;;;;;13.13;8.90;;;;;;;20.36;62.12;101953.84;5114859;28;20024;-56
2022/08/30 08:31:14;;;;;;;9.98;8.82;;;;;;;20.39;61.98;101961.69;5114081;28;20038;-56
2022/08/30 08:33:39;;;;;;;10.13;8.65;;;;;;;20.44;61.89;101958.56;5113853;28;20026;-56
2022/08/30 08:36:05;;;;;;;9.05;7.70;;;;;;;20.54;61.73;101956.81;5115454;28;20036;-56
2022/08/30 08:38:30;;;;;;;8.20;7.40;;;;;;;20.70;60.99;101964.41;5113765;28;20054;-56
2022/08/30 08:41:16;;;;;;;10.10;7.43;;;;;;;20.73;60.90;101961.44;5114181;28;20027;-56
2022/08/30 08:43:41;;;;;;;9.02;8.02;;;;;;;20.96;60.51;101963.97;5114706;28;20023;-56
2022/08/30 08:46:25;;;;;;;9.05;7.43;;;;;;;21.10;60.15;101958.16;5115032;28;20501;-56
2022/08/30 08:48:54;;;;;;;9.55;7.15;;;;;;;21.27;59.38;101964.75;5114845;28;20445;-56
2022/08/30 08:54:21;;;;;;;8.55;5.93;;;;;;;21.52;58.55;101966.94;5114614;28;20035;-56
2022/08/30 08:56:49;;;;;;;11.05;5.57;;;;;;;21.60;57.90;101960.00;5115202;28;20035;-55
2022/08/30 08:59:15;;;;;;;6.32;5.53;;;;;;;21.64;58.16;101964.13;5112918;28;20517;-56
2022/08/30 09:01:40;;;;;;;9.80;5.60;;;;;;;21.76;57.45;101962.97;5113841;28;20038;-56
2022/08/30 09:04:14;;;;;;;5.75;5.22;;;;;;;21.90;56.90;101959.84;5113410;28;20028;-56
2022/08/30 09:06:44;;;;;;;6.63;5.03;;;;;;;21.99;56.13;101958.97;5114914;28;20059;-56
2022/08/30 09:09:09;;;;;;;;;;;;;;;22.19;55.97;101964.41;5114513;28;20104;-56
2022/08/30 09:11:36;;;;;;;4.72;4.20;;;;;;;22.26;54.53;101970.09;5114764;28;20322;-56
2022/08/30 09:14:09;;;;;;;6.22;3.85;;;;;;;22.40;54.10;101959.63;5114150;28;20115;-56
2022/08/30 09:16:51;;;;;;;5.45;3.00;;;;;;;22.60;53.84;101957.72;5114812;28;20394;-56
2022/08/30 09:19:30;;;;;;;5.28;3.00;;;;;;;22.80;54.16;101954.94;5114430;28;20023;-56
2022/08/30 09:22:21;;;;;;;5.35;3.67;;;;;;;22.94;52.18;101954.44;5113433;28;20027;-56
2022/08/30 09:24:51;;;;;;;7.80;3.60;;;;;;;23.00;51.18;101963.84;5114429;28;20023;-56
2022/08/30 09:27:26;;;;;;;13.52;3.70;;;;;;;23.15;51.37;101956.06;5114455;28;20708;-56
2022/08/30 09:30:01;;;;;;;4.68;3.25;;;;;;;23.28;50.59;101968.28;5112328;28;20474;-56
2022/08/30 09:32:38;;;;;;;9.23;3.35;;;;;;;23.38;50.43;101968.19;5114525;28;20027;-57
2022/08/30 09:35:08;;;;;;;3.40;3.10;;;;;;;23.61;49.55;101962.34;5114261;28;20019;-56
2022/08/30 09:37:44;;;;;;;7.05;3.45;;;;;;;23.56;49.13;101966.38;5112855;28;20020;-56
2022/08/30 09:40:36;;;;;;;5.38;3.53;;;;;;;23.67;49.21;101954.41;5112751;28;20080;-56
2022/08/30 09:43:18;;;;;;;5.68;3.28;;;;;;;23.76;48.89;101964.38;5104904;28;20039;-57
2022/08/30 09:46:03;;;;;;;7.38;2.78;;;;;;;23.91;48.40;101964.66;5112799;28;20023;-56
2022/08/30 09:48:31;;;;;;;5.55;3.03;;;;;;;24.15;48.16;101969.47;5113962;28;20099;-56
2022/08/30 09:51:09;;;;;;;4.40;2.72;;;;;;;24.31;47.78;101967.88;5113984;28;20168;-56
2022/08/30 09:53:37;;;;;;;5.93;3.00;;;;;;;24.26;46.99;101969.19;5113962;28;20027;-56
2022/08/30 09:56:06;;;;;;;4.85;3.08;;;;;;;24.29;46.93;101969.88;5112451;28;20031;-55
2022/08/30 09:58:47;;;;;;;;;;;;;;;24.59;47.63;101963.13;5112304;28;20524;-56
2022/08/30 10:01:23;;;;;;;5.45;2.50;;;;;;;24.48;46.49;101937.06;5113426;28;19918;-56
2022/08/30 10:04:05;;;;;;;3.38;2.58;;;;;;;24.80;46.81;101962.75;5113595;28;20031;-56
2022/08/30 10:06:41;;;;;;;7.18;2.75;;;;;;;24.91;46.21;101965.16;5113659;28;20484;-56
2022/08/30 10:09:14;;;;;;;8.40;2.60;;;;;;;24.98;45.61;101958.06;5113251;28;20027;-57
2022/08/30 10:11:47;;;;;;;4.95;2.38;;;;;;;24.94;45.49;101953.94;5113379;28;20058;-56
2022/08/30 10:14:45;;;;;;;3.78;2.10;;;;;;;25.15;45.24;101950.84;5094647;28;20072;-56
2022/08/30 10:17:18;;;;;;;;;;;;;;;25.44;44.86;101958.53;5113851;28;20019;-56
2022/08/30 10:20:05;;;;;;;7.55;2.67;;;;;;;25.17;44.39;101953.38;5112058;28;19907;-56
2022/08/30 10:23:01;;;;;;;4.82;2.28;;;;;;;25.10;44.93;101954.03;5112305;28;20023;-56
2022/08/30 10:25:37;;;;;;;4.45;2.47;;;;;;;25.08;44.51;101944.31;5108175;28;20035;-56
2022/08/30 10:28:20;;;;;;;5.70;2.50;;;;;;;25.26;44.08;101950.50;5112743;28;20474;-56
2022/08/30 10:30:53;;;;;;;4.72;2.40;;;;;;;25.21;44.00;101944.72;5113213;28;20068;-56
2022/08/30 10:33:27;;;;;;;8.88;2.42;;;;;;;25.32;43.43;101947.13;5113123;28;20455;-56
2022/08/30 10:35:56;;;;;;;5.88;2.10;;;;;;;25.44;43.51;101950.38;5112811;28;20028;-56
2022/08/30 10:38:37;;;;;;;7.28;2.38;;;;;;;25.75;43.66;101947.03;5112956;28;20530;-56
2022/08/30 10:41:33;;;;;;;7.53;2.50;;;;;;;26.00;43.25;101950.59;5112993;28;20389;-57
2022/08/30 10:44:16;;;;;;;3.65;1.92;;;;;;;25.96;42.71;101941.94;5112581;28;20084;-56
2022/08/30 10:47:08;;;;;;;6.50;2.30;;;;;;;26.16;42.00;101947.88;5113000;28;20031;-56
2022/08/30 10:49:39;;;;;;;6.00;2.20;;;;;;;26.23;41.47;101954.34;5112634;28;20035;-57
2022/08/30 10:52:10;;;;;;;6.55;2.40;;;;;;;26.18;40.99;101955.91;5111454;28;20037;-56
2022/08/30 10:54:54;;;;;;;9.63;2.60;;;;;;;26.14;40.75;101938.16;5111557;28;20027;-56
2022/08/30 10:57:19;;;;;;;7.88;2.25;;;;;;;26.01;40.83;101939.53;5111536;28;20080;-56
2022/08/30 10:59:56;;;;;;;4.55;1.98;;;;;;;26.28;41.04;101937.47;5110769;28;20051;-56
2022/08/30 11:02:55;;;;;;;6.30;1.95;;;;;;;26.66;41.69;101935.84;5112586;28;20050;-56
2022/08/30 11:05:31;;;;;;;3.88;1.80;;;;;;;26.66;40.05;101940.47;5112610;28;20031;-56
2022/08/30 11:08:15;;;;;;;6.07;2.05;;;;;;;26.75;39.59;101936.69;5112592;28;20016;-56
2022/08/30 11:10:50;;;;;;;3.47;1.92;;;;;;;26.66;40.22;101938.59;5112519;28;20027;-56
2022/08/30 11:13:21;;;;;;;7.95;2.03;;;;;;;26.81;39.37;101935.97;5112129;28;20034;-56
2022/08/30 11:16:14;;;;;;;6.60;1.88;;;;;;;27.19;39.60;101938.88;5111351;28;20074;-56
2022/08/30 11:18:42;;;;;;;4.05;1.70;;;;;;;26.96;39.99;101931.44;5105743;28;20039;-56
2022/08/30 11:21:39;;;;;;;5.65;1.85;;;;;;;27.30;39.29;101937.63;5112377;28;20027;-57
2022/08/30 11:24:29;;;;;;;3.13;1.83;;;;;;;27.30;38.47;101934.91;5109980;28;20108;-56
2022/08/30 11:26:58;;;;;;;6.78;2.13;;;;;;;27.51;37.91;101932.34;5094477;28;20047;-57
2022/08/30 11:29:29;;;;;;;4.97;1.90;;;;;;;27.73;38.03;101927.06;5110436;28;20023;-56
2022/08/30 11:31:56;;;;;;;6.82;1.77;;;;;;;28.21;37.20;101924.94;5111139;28;20027;-56
2022/08/30 11:34:55;;;;;;;7.20;2.10;;;;;;;28.45;37.04;101932.91;5110728;28;20039;-57
2022/08/30 11:37:41;;;;;;;4.38;1.80;;;;;;;27.97;37.00;101928.75;5112319;28;20383;-56
2022/08/30 11:40:19;;;;;;;3.22;2.10;;;;;;;27.63;36.46;101927.31;5110783;28;20020;-56
2022/08/30 11:42:47;;;;;;;7.22;1.92;;;;;;;27.63;37.03;101930.03;5111006;28;20441;-56